KHPN/HPN METAR and TAF weather

Enter ICAO airport designator
Station Type Date Time Source
KHPN METAR 2021/07/29 19:26 UTC NOAA

KHPN 291926Z 16007G16KT 5SM -DZ BR FEW016 BKN023 OVC030 22/19 A2989 RMK AO2 RAB11E26DZB26 P0000 T02170194


Station Type Date Time Source
KHPN Decoded METAR 2021/07/29 19:26 UTC NOAA

WHITE PLAINS WESTCHESTER, NY, United States (KHPN) 41-04N 073-42W 121M
Jul 29, 2021 - 03:26 PM EDT / 2021.07.29 1926 UTC
Wind: from the SSE (160 degrees) at 8 MPH (7 KT) gusting to 18 MPH (16 KT):0
Visibility: 5 mile(s):0
Sky conditions: overcast
Weather: light drizzle; mist
Precipitation last hour: A trace
Temperature: 71.1 F (21.7 C)
Dew Point: 66.9 F (19.4 C)
Relative Humidity: 86%
Pressure (altimeter): 29.89 in. Hg (1012 hPa)
ob: KHPN 291926Z 16007G16KT 5SM -DZ BR FEW016 BKN023 OVC030 22/19 A2989 RMK AO2 RAB11E26DZB26 P0000 T02170194
cycle: 19

Station Type Date Time Source
KHPN TAF 2021/07/29 19:10 UTC NOAA

TAF
AMD KHPN 291908Z 2919/3018 17012G18KT P6SM VCSH SCT023 BKN045
FM292000 17012G20KT 5SM TSRA SCT015 BKN050CB
FM300300 VRB03KT 5SM BR VCSH SCT007 BKN015
FM300600 27005KT P6SM BKN025

Example: see airport list